x

West Santa Barbara 38 Nm West Of Santa Barbara, Ca (46054) Wave Buoy

6:50 - Tue 23rd May 2017 All times are PDT. -7 hours from GMT.

  • Sig Wave height 3.6ft
  • Swell Direction
  • Peak Period 15s
  • Average Period 5s
  • Wind
    11mph, 13mph gusts
  • Sea Temp 55°f
  • Ar Temp 53°f
  • Sea Pressure 1014.2mb
  • West Santa Barbara  38 Nm West Of Santa Barbara, Ca
  • West Santa Barbara  38 Nm West Of Santa Barbara, Ca

More Historic Weather Station data

Upgrade to MSW Pro to gain access to the past 30 days of data for over 8000 Wavebouys and Weather Stations around the globe.

Join Pro

Comparision Forecast

View Surf forecast
   
Ter 05/23 6:50 3.5ft 15s 5s 11 13 mph 1014.2mb 55f 53f
5:50 4ft 15s 5s 11 13 mph 1014mb 55f 52f
4:50 4.5ft 15s 5s 13 16 mph 1014.2mb 55f 51f
3:50 4ft 15s 5s 7 13 mph 1013.9mb 55f 54f
2:50 4.5ft 15s 5s 22 25 mph 1013.4mb 55f 52f
1:50 4.5ft 5s 5s 22 27 mph 1013.9mb 55f 52f
12:50 5ft 15s 5s 27 31 mph 1014mb 55f 52f
Seg 05/22 11:50 5ft 15s 5s 27 31 mph 1014.2mb 55f 53f
10:50 4.5ft 4s 5s 25 29 mph 1014.1mb 55f 53f
9:50 5ft 15s 5s 25 29 mph 1013.9mb 55f 53f
8:50 5ft 15s 5s 25 29 mph 1013.8mb 55f 53f
7:50 5ft 15s 5s 25 29 mph 1013.5mb 55f 53f
6:50 5ft 4s 5s 25 29 mph 1013.4mb 57f 53f
5:50 4.5ft 8s 5s 25 27 mph 1013.3mb 58f 55f
4:50 4.5ft 16s 5s 25 29 mph 1014mb 58f 55f
3:50 4.5ft 15s 5s 22 27 mph 1014.7mb 58f 55f
2:50 4.5ft 9s 5s 20 25 mph 1015.2mb 58f 54f
1:50 4.5ft 8s 5s 20 22 mph 1015.4mb 58f 54f
12:50 4.5ft 9s 5s 18 20 mph 1015.7mb 58f 53f
11:50 4.5ft 10s 5s 16 18 mph 1015.9mb 57f 52f
10:50 4.5ft 8s 5s 16 20 mph 1015.7mb 57f 51f
9:50 4.5ft 9s 5s 16 20 mph 1015.7mb 57f 51f
8:50 5ft 10s 6s 18 20 mph 1015.1mb 56f 51f
7:50 5ft 9s 5s 18 22 mph 1014.3mb 56f 51f
6:50 5ft 5s 5s 20 25 mph 1014mb 55f 51f
5:50 5ft 5s 5s 22 29 mph 1013.3mb 55f 51f
4:50 5.5ft 11s 5s 25 27 mph 1013.1mb 55f 51f
3:50 5ft 9s 5s 22 27 mph 1013.1mb 55f 51f
2:50 6ft 10s 5s 25 29 mph 1013.1mb 54f 51f
1:50 5.5ft 11s 5s 25 29 mph 1013.2mb 55f 52f
12:50 5ft 5s 5s 27 29 mph 1013.4mb 55f 52f
Dom 05/21 11:50 5ft 10s 5s 25 29 mph 1013.8mb 55f 52f
10:50 5ft 4s 5s 25 29 mph 1014mb 56f 52f
9:50 5ft 5s 5s 25 31 mph 1013.6mb 57f 53f
8:50 5ft 12s 5s 25 29 mph 1013.4mb 57f 53f
7:50 5ft 4s 5s 25 29 mph 1013mb 57f 53f
6:50 5ft 4s 5s 27 29 mph 1012.7mb 57f 54f
5:50 4.5ft 11s 5s 27 31 mph 1012.7mb 58f 55f
4:50 4.5ft 12s 5s 25 29 mph 1013.1mb 59f 55f
3:50 4.5ft 9s 5s 20 22 mph 1013.5mb 59f 55f
2:50 4.5ft 8s 5s 20 22 mph 1014mb 59f 54f
1:50 5ft 9s 6s 18 22 mph 1014.3mb 58f 54f
12:50 4.5ft 12s 6s 13 18 mph 1014.2mb 58f 53f
11:50 5ft 9s 6s 16 16 mph 1014.1mb 57f 53f
10:50 4.5ft 8s 6s 13 16 mph 1013.8mb 56f 53f
9:50 5ft 9s 6s 18 20 mph 1013.2mb 56f 52f
8:50 5ft 8s 5s 16 18 mph 1012.8mb 55f 52f
7:50 5.5ft 5s 5s 20 25 mph 1012.2mb 55f 52f
6:50 6ft 8s 5s 25 29 mph 1011.2mb 55f 52f
5:50 5.5ft 9s 5s 25 29 mph 1010.5mb 55f 52f
4:50 5.5ft 5s 5s 22 27 mph 1010.3mb 55f 52f
3:50 5.5ft 9s 5s 25 29 mph 1010.4mb 55f 52f
2:50 5ft 9s 5s 25 29 mph 1010.7mb 56f 52f
1:50 5ft 9s 5s 22 27 mph 1011mb 56f 52f
12:50 5ft 8s 5s 20 25 mph 1011.3mb 55f 52f
Sáb 05/20 11:50 5ft 9s 5s 20 25 mph 1011.7mb 55f 52f
10:50 5ft 5s 5s 22 25 mph 1011.9mb 55f 53f
9:50 5ft 9s 5s 22 27 mph 1011.8mb 56f 53f
8:50 5ft 5s 5s 22 27 mph 1011.5mb 56f 53f
7:50 5ft 5s 5s 25 31 mph 1011.3mb 57f 53f
6:50 5ft 5s 5s 25 29 mph 1011.1mb 58f 53f
5:50 5ft 5s 5s 22 27 mph 1011.2mb 58f 54f
4:50 5ft 8s 5s 20 27 mph 1011.6mb 58f 54f
3:50 5ft 8s 5s 20 25 mph 1012.3mb 57f 53f
2:50 4.5ft 8s 5s 18 20 mph 1013mb 56f 53f
1:50 4.5ft 8s 5s 16 18 mph 1013.3mb 56f 53f
12:50 4.5ft 8s 6s 16 18 mph 1013.7mb 57f 53f
11:50 4.5ft 8s 5s 16 18 mph 1014mb 56f 52f
10:50 4.5ft 9s 5s 16 18 mph 1013.7mb 56f 53f
9:50 4.5ft 8s 5s 16 18 mph 1013.6mb 56f 55f
8:50 4.5ft 8s 6s 11 13 mph 1013.2mb 56f 56f
7:50 4.5ft 8s 5s 13 16 mph 1012.7mb 56f 55f
6:50 4.5ft 8s 5s 16 18 mph 1012.3mb 55f 55f
5:50 5ft 8s 5s 20 22 mph 1011.4mb 54f 55f
4:50 4.5ft 9s 5s 20 22 mph 1011.5mb 54f 54f
3:50 4.5ft 8s 5s 20 22 mph 1011.4mb 54f 54f
2:50 4.5ft 9s 5s 20 22 mph 1011.8mb 54f 54f
1:50 4.5ft 9s 6s 20 22 mph 1012.5mb 54f 54f
12:50 4.5ft 8s 6s 18 22 mph 1013mb 54f 55f
Sex 05/19 11:50 4.5ft 9s 6s 18 20 mph 1013.4mb 54f 55f
10:50 4.5ft 8s 6s 16 18 mph 1013.5mb 54f 55f
9:50 4.5ft 8s 6s 16 20 mph 1013.4mb 54f 55f
8:50 5ft 9s 7s 16 18 mph 1013mb 54f 55f
7:50 4.5ft 8s 7s 16 18 mph 1012.7mb 54f 56f
6:50 5ft 8s 7s 11 13 mph 1012.8mb 54f 56f
5:50 5ft 9s 7s 11 11 mph 1012.9mb 54f 56f
4:50 5ft 8s 7s 11 13 mph 1013mb 55f 56f
3:50 5ft 8s 7s 11 13 mph 1013.4mb 55f 55f